Time;durP1;ratioP1;P1;durP2;ratioP2;P2;SDS_P1;SDS_P2;PMS_P1;PMS_P2;Temp;Humidity;BMP_temperature;BMP_pressure;BME280_temperature;BME280_humidity;BME280_pressure;Samples;Min_cycle;Max_cycle;Signal;HPM_P1;HPM_P2
2022/03/27 00:00:34;;;;;;;15.82;8.05;;;11.50;99.90;;;;;;5072655;28;20029;-87
2022/03/27 00:03:07;;;;;;;16.40;8.10;;;11.40;99.90;;;;;;5072389;28;20433;-87
2022/03/27 00:05:33;;;;;;;20.33;9.27;;;11.40;99.90;;;;;;5072563;28;20031;-87
2022/03/27 00:07:59;;;;;;;11.02;7.07;;;11.50;99.90;;;;;;5070761;28;20031;-88
2022/03/27 00:13:48;;;;;;;10.57;7.45;;;11.40;99.90;;;;;;5072724;28;20113;-88
2022/03/27 00:16:14;;;;;;;14.20;7.60;;;11.40;99.90;;;;;;5076284;28;20111;-87
2022/03/27 00:18:42;;;;;;;15.13;8.25;;;11.30;99.90;;;;;;5076722;28;20416;-87
2022/03/27 00:21:10;;;;;;;13.98;7.88;;;11.30;99.90;;;;;;5076406;28;20024;-87
2022/03/27 00:23:36;;;;;;;20.33;9.30;;;11.30;99.90;;;;;;5074747;28;20365;-88
2022/03/27 00:26:21;;;;;;;16.40;9.13;;;11.40;99.90;;;;;;5075113;28;20023;-87
2022/03/27 00:28:48;;;;;;;16.60;9.02;;;11.40;99.90;;;;;;5076345;28;20021;-87
2022/03/27 00:31:14;;;;;;;16.55;7.88;;;11.40;99.90;;;;;;5076343;28;20024;-87
2022/03/27 00:33:43;;;;;;;11.52;7.57;;;11.30;99.90;;;;;;5064667;28;20033;-87
2022/03/27 00:36:10;;;;;;;12.85;8.02;;;11.30;99.90;;;;;;5055946;28;20036;-87
2022/03/27 00:38:37;;;;;;;17.08;8.63;;;11.30;99.90;;;;;;5056020;28;20032;-86
2022/03/27 00:41:30;;;;;;;17.90;9.25;;;11.30;99.90;;;;;;5056103;28;20044;-86
2022/03/27 00:43:56;;;;;;;13.65;8.55;;;11.30;99.90;;;;;;5068277;28;20043;-86
2022/03/27 00:46:30;;;;;;;13.23;8.30;;;11.30;99.90;;;;;;5074827;28;20036;-87
2022/03/27 00:48:55;;;;;;;12.55;8.18;;;11.20;99.90;;;;;;5075824;28;20024;-86
2022/03/27 00:51:21;;;;;;;15.20;8.90;;;11.20;99.90;;;;;;5074759;28;20021;-86
2022/03/27 00:53:50;;;;;;;16.35;8.27;;;11.20;99.90;;;;;;5074317;28;20024;-86
2022/03/27 00:56:15;;;;;;;13.30;8.32;;;11.20;99.90;;;;;;5075821;28;20032;-86
2022/03/27 00:58:41;;;;;;;14.70;9.25;;;11.10;99.90;;;;;;5075862;28;20016;-86
2022/03/27 01:01:24;;;;;;;14.55;8.45;;;11.10;99.90;;;;;;5075746;28;20028;-86
2022/03/27 01:03:53;;;;;;;14.18;7.63;;;11.10;99.90;;;;;;5064243;28;20464;-86
2022/03/27 01:06:29;;;;;;;13.30;7.82;;;11.10;99.90;;;;;;5075808;28;20490;-87
2022/03/27 01:11:39;;;;;;;11.88;8.30;;;11.10;99.90;;;;;;5075565;28;20035;-86
2022/03/27 01:14:05;;;;;;;17.45;9.90;;;11.00;99.90;;;;;;5071105;28;20493;-86
2022/03/27 01:17:04;;;;;;;12.55;8.45;;;11.00;99.90;;;;;;5075375;28;20044;-87
2022/03/27 01:19:31;;;;;;;18.67;9.05;;;11.00;99.90;;;;;;5055327;28;20025;-87
2022/03/27 01:21:57;;;;;;;13.85;8.75;;;11.00;99.90;;;;;;5057412;28;20021;-86
2022/03/27 01:24:29;;;;;;;12.07;7.75;;;11.00;99.90;;;;;;5074287;28;20020;-87
2022/03/27 01:26:55;;;;;;;23.05;10.27;;;11.00;99.90;;;;;;5075382;28;20498;-87
2022/03/27 01:29:20;;;;;;;14.18;8.02;;;10.90;99.90;;;;;;5074814;28;20052;-86
2022/03/27 01:32:05;;;;;;;17.42;8.98;;;10.90;99.90;;;;;;5075118;28;20043;-87
2022/03/27 01:34:31;;;;;;;15.20;8.30;;;10.90;99.90;;;;;;5073366;28;20499;-86
2022/03/27 01:37:29;;;;;;;13.15;7.30;;;10.90;99.90;;;;;;5074869;28;20028;-86
2022/03/27 01:39:54;;;;;;;13.68;8.32;;;10.90;99.90;;;;;;5075178;28;20032;-87
2022/03/27 01:42:20;;;;;;;17.42;8.65;;;10.90;99.90;;;;;;5075060;28;20491;-87
2022/03/27 01:44:47;;;;;;;16.73;7.70;;;10.80;99.90;;;;;;5075059;28;20381;-87
2022/03/27 01:47:12;;;;;;;20.73;8.77;;;10.80;99.90;;;;;;5074761;28;20021;-86
2022/03/27 01:49:40;;;;;;;12.38;7.72;;;10.80;99.90;;;;;;5073635;28;20028;-87
2022/03/27 01:52:15;;;;;;;19.52;9.60;;;10.70;99.90;;;;;;5055809;28;20031;-87
2022/03/27 01:54:41;;;;;;;18.63;10.18;;;10.80;99.90;;;;;;5071392;28;20021;-87
2022/03/27 01:57:06;;;;;;;14.95;8.23;;;10.70;99.90;;;;;;5074593;28;20028;-87
2022/03/27 01:59:45;;;;;;;17.83;9.10;;;10.70;99.90;;;;;;5074774;28;20017;-87
2022/03/27 02:02:10;;;;;;;15.00;9.32;;;10.70;99.90;;;;;;5074480;28;20029;-88
2022/03/27 02:04:44;;;;;;;13.48;8.55;;;10.70;99.90;;;;;;5074401;28;20030;-87
2022/03/27 02:07:10;;;;;;;15.30;8.68;;;10.70;99.90;;;;;;5073295;28;20029;-87
2022/03/27 02:09:35;;;;;;;21.30;9.55;;;10.70;99.90;;;;;;5073096;28;20032;-88
2022/03/27 02:12:02;;;;;;;13.38;9.85;;;10.60;99.90;;;;;;5074525;28;20059;-87
2022/03/27 02:14:45;;;;;;;13.55;9.50;;;10.60;99.90;;;;;;5073966;28;20504;-87
2022/03/27 02:17:10;;;;;;;14.90;8.82;;;10.60;99.90;;;;;;5072848;28;20032;-86
2022/03/27 02:19:36;;;;;;;23.92;10.77;;;10.60;99.90;;;;;;5074318;28;20411;-86
2022/03/27 02:22:14;;;;;;;16.17;8.95;;;10.60;99.90;;;;;;5074276;28;20460;-87
2022/03/27 02:24:39;;;;;;;15.98;9.57;;;10.60;99.90;;;;;;5073916;28;20374;-87
2022/03/27 02:27:05;;;;;;;16.52;9.23;;;10.50;99.90;;;;;;5074226;28;20103;-86
2022/03/27 02:29:32;;;;;;;15.38;9.48;;;10.50;99.90;;;;;;5074076;28;20051;-87
2022/03/27 02:32:00;;;;;;;17.90;9.75;;;10.50;99.90;;;;;;5074220;28;20419;-87
2022/03/27 02:34:26;;;;;;;18.63;9.52;;;10.40;99.90;;;;;;5073896;28;20027;-86
2022/03/27 02:36:53;;;;;;;18.98;9.90;;;10.40;99.90;;;;;;5072732;28;20059;-87
2022/03/27 02:39:20;;;;;;;17.27;9.38;;;10.40;99.90;;;;;;5073424;28;20032;-87
2022/03/27 02:41:47;;;;;;;18.17;9.13;;;10.40;99.90;;;;;;5074054;28;20021;-87
2022/03/27 02:44:12;;;;;;;16.67;8.60;;;10.40;99.90;;;;;;5072321;28;20021;-86
2022/03/27 02:46:38;;;;;;;16.63;8.63;;;10.30;99.90;;;;;;5073827;28;20499;-87
2022/03/27 02:49:18;;;;;;;21.65;10.45;;;10.30;99.90;;;;;;5073713;28;20529;-86
2022/03/27 02:51:45;;;;;;;16.75;9.27;;;10.30;99.90;;;;;;5073720;28;20384;-86
2022/03/27 02:54:11;;;;;;;17.83;9.35;;;10.30;99.90;;;;;;5073184;28;20029;-86
2022/03/27 02:56:39;;;;;;;15.15;8.55;;;10.30;99.90;;;;;;5072274;28;20078;-86
2022/03/27 02:59:04;;;;;;;20.98;9.48;;;10.20;99.90;;;;;;5073550;28;20031;-86
2022/03/27 03:01:31;;;;;;;18.77;9.30;;;10.20;99.90;;;;;;5073516;28;20104;-86
2022/03/27 03:03:58;;;;;;;24.05;10.82;;;10.20;99.90;;;;;;5073260;28;20023;-87
2022/03/27 03:06:24;;;;;;;23.35;9.98;;;10.20;99.90;;;;;;5072276;28;20365;-87
2022/03/27 03:09:02;;;;;;;19.00;9.15;;;10.20;99.90;;;;;;5071688;28;20069;-86
2022/03/27 03:11:31;;;;;;;16.73;8.77;;;10.20;99.90;;;;;;5073454;28;20028;-86
2022/03/27 03:14:03;;;;;;;15.30;8.45;;;10.20;99.90;;;;;;5072883;28;20055;-87
2022/03/27 03:16:29;;;;;;;18.70;9.27;;;10.20;99.90;;;;;;5072923;28;20437;-86
2022/03/27 03:19:01;;;;;;;16.50;9.60;;;10.10;99.90;;;;;;5072786;28;20027;-86
2022/03/27 03:21:27;;;;;;;19.17;8.82;;;10.10;99.90;;;;;;5072064;28;20075;-87
2022/03/27 03:23:52;;;;;;;17.55;9.57;;;10.00;99.90;;;;;;5071232;28;20051;-87
2022/03/27 03:26:22;;;;;;;18.90;9.23;;;10.00;99.90;;;;;;5073173;28;20078;-87
2022/03/27 03:28:48;;;;;;;20.38;9.35;;;10.00;99.90;;;;;;5071614;28;20025;-86
2022/03/27 03:31:14;;;;;;;18.63;9.57;;;10.00;99.90;;;;;;5073050;28;20028;-87
2022/03/27 03:33:44;;;;;;;15.73;9.60;;;10.00;99.90;;;;;;5071917;28;20021;-87
2022/03/27 03:36:10;;;;;;;25.38;10.10;;;9.90;99.90;;;;;;5072770;28;20431;-87
2022/03/27 03:38:38;;;;;;;22.23;11.65;;;9.90;99.90;;;;;;5072566;28;20055;-87
2022/03/27 03:41:09;;;;;;;18.00;9.25;;;9.90;99.90;;;;;;5072646;28;20074;-87
2022/03/27 03:43:38;;;;;;;18.48;9.00;;;9.90;99.90;;;;;;5073192;28;20449;-87
2022/03/27 03:46:40;;;;;;;13.40;9.27;;;9.90;99.90;;;;;;5072499;28;20555;-87
2022/03/27 03:49:06;;;;;;;20.85;10.70;;;9.90;99.90;;;;;;5072776;28;20056;-87
2022/03/27 03:51:34;;;;;;;14.80;9.18;;;9.90;99.90;;;;;;5071523;28;20490;-87
2022/03/27 03:54:00;;;;;;;18.92;9.82;;;9.90;99.90;;;;;;5072314;28;20020;-87
2022/03/27 03:56:25;;;;;;;21.50;11.50;;;9.90;99.90;;;;;;5071382;28;20119;-87
2022/03/27 03:59:03;;;;;;;20.70;10.05;;;9.80;99.90;;;;;;5072790;28;20044;-87
2022/03/27 04:01:29;;;;;;;27.75;10.43;;;9.80;99.90;;;;;;5051334;28;20025;-87
2022/03/27 04:03:58;;;;;;;19.83;10.68;;;9.80;99.90;;;;;;5061428;28;20043;-88
2022/03/27 04:06:24;;;;;;;20.77;10.95;;;9.80;99.90;;;;;;5072758;28;20021;-87
2022/03/27 04:08:49;;;;;;;20.25;11.80;;;9.70;99.90;;;;;;5072448;28;20028;-87
2022/03/27 04:11:22;;;;;;;25.73;12.02;;;9.70;99.90;;;;;;5072617;28;20358;-87
2022/03/27 04:13:48;;;;;;;21.33;12.05;;;9.70;99.90;;;;;;5071164;28;20048;-86
2022/03/27 04:16:14;;;;;;;23.98;12.05;;;9.70;99.90;;;;;;5071216;28;20037;-86
2022/03/27 04:18:40;;;;;;;30.08;12.27;;;9.70;99.90;;;;;;5072273;28;20070;-87
2022/03/27 04:21:11;;;;;;;21.23;11.68;;;9.60;99.90;;;;;;5071347;28;20024;-87
2022/03/27 04:23:37;;;;;;;17.50;11.30;;;9.60;99.90;;;;;;5070675;28;20530;-86
2022/03/27 04:26:03;;;;;;;26.60;12.05;;;9.50;99.90;;;;;;5071214;28;20025;-87
2022/03/27 04:28:52;;;;;;;24.45;12.13;;;9.50;99.90;;;;;;5072299;28;20048;-87
2022/03/27 04:31:18;;;;;;;22.42;11.68;;;9.60;99.90;;;;;;5072538;28;20064;-87
2022/03/27 04:33:47;;;;;;;21.30;11.43;;;9.50;99.90;;;;;;5071308;28;20568;-87
2022/03/27 04:36:12;;;;;;;17.60;11.15;;;9.50;99.90;;;;;;5070281;28;20071;-87
2022/03/27 04:38:55;;;;;;;24.50;11.52;;;9.50;99.90;;;;;;5070803;28;20032;-87
2022/03/27 04:41:20;;;;;;;24.88;12.40;;;9.60;99.90;;;;;;5072114;28;20020;-88
2022/03/27 04:44:11;;;;;;;19.50;11.27;;;9.60;99.90;;;;;;5070999;28;20020;-88
2022/03/27 04:46:43;;;;;;;16.75;10.55;;;9.60;99.90;;;;;;5072296;28;20077;-87
2022/03/27 04:49:08;;;;;;;16.17;11.15;;;9.50;99.90;;;;;;5072140;28;20422;-87
2022/03/27 04:51:45;;;;;;;16.33;10.63;;;9.60;99.90;;;;;;5072263;28;20028;-87
2022/03/27 04:54:10;;;;;;;16.58;10.77;;;9.60;99.90;;;;;;5071800;28;20387;-87
2022/03/27 04:56:56;;;;;;;14.50;10.85;;;9.60;99.90;;;;;;5072130;28;20112;-87
2022/03/27 04:59:21;;;;;;;15.07;9.77;;;9.60;99.90;;;;;;5073224;28;20025;-87
2022/03/27 05:01:49;;;;;;;16.08;10.23;;;9.70;99.90;;;;;;5074469;28;20086;-87
2022/03/27 05:04:14;;;;;;;18.98;10.88;;;9.70;99.90;;;;;;5075732;28;20082;-87
2022/03/27 05:06:52;;;;;;;21.35;11.60;;;9.70;99.90;;;;;;5075605;28;20480;-87
2022/03/27 05:09:19;;;;;;;32.20;12.27;;;9.70;99.90;;;;;;5075281;28;20024;-87
2022/03/27 05:11:44;;;;;;;20.15;12.05;;;9.70;99.90;;;;;;5075608;28;20500;-87
2022/03/27 05:14:10;;;;;;;24.63;12.25;;;9.70;99.90;;;;;;5073961;28;20079;-87
2022/03/27 05:16:44;;;;;;;17.85;11.00;;;9.60;99.90;;;;;;5075498;28;20029;-87
2022/03/27 05:19:10;;;;;;;20.75;11.82;;;9.60;99.90;;;;;;5074246;28;20052;-87
2022/03/27 05:21:47;;;;;;;24.85;13.38;;;9.60;99.90;;;;;;5075505;28;20059;-88
2022/03/27 05:24:13;;;;;;;17.48;12.15;;;9.60;99.90;;;;;;5074286;28;20063;-87
2022/03/27 05:26:47;;;;;;;25.45;12.35;;;9.60;99.90;;;;;;5073965;28;20029;-87
2022/03/27 05:29:13;;;;;;;26.50;12.85;;;9.60;99.90;;;;;;5075122;28;20534;-87
2022/03/27 05:32:28;;;;;;;30.23;13.63;;;9.70;99.90;;;;;;5075158;28;20454;-87
2022/03/27 05:34:53;;;;;;;19.13;11.73;;;9.60;99.90;;;;;;5074765;28;20032;-87
2022/03/27 05:37:19;;;;;;;27.50;13.85;;;9.60;99.90;;;;;;5073157;28;20511;-87
2022/03/27 05:39:44;;;;;;;22.10;13.90;;;9.60;99.90;;;;;;5075024;28;20028;-87
2022/03/27 05:42:20;;;;;;;25.10;12.93;;;9.60;99.90;;;;;;5074802;28;20427;-88
2022/03/27 05:44:46;;;;;;;22.90;14.48;;;9.60;99.90;;;;;;5075150;28;20020;-90
2022/03/27 05:47:11;;;;;;;25.38;13.15;;;9.60;99.90;;;;;;5075074;28;20025;-90
2022/03/27 05:49:39;;;;;;;22.95;12.93;;;9.60;99.90;;;;;;5073932;28;20082;-86
2022/03/27 05:52:05;;;;;;;23.65;13.38;;;9.60;99.90;;;;;;5074599;28;20032;-88
2022/03/27 05:54:39;;;;;;;22.38;12.50;;;9.50;99.90;;;;;;5074443;28;20515;-87
2022/03/27 05:57:04;;;;;;;26.92;14.77;;;9.50;99.90;;;;;;5074692;28;20036;-88
2022/03/27 05:59:33;;;;;;;28.98;14.07;;;9.50;99.90;;;;;;5074391;28;20043;-87
2022/03/27 06:01:59;;;;;;;18.90;13.38;;;9.50;99.90;;;;;;5073486;28;20468;-87
2022/03/27 06:04:25;;;;;;;26.80;14.00;;;9.60;99.90;;;;;;5074530;28;20020;-87
2022/03/27 06:06:51;;;;;;;23.58;13.63;;;9.60;99.90;;;;;;5072994;28;20028;-87
2022/03/27 06:09:22;;;;;;;25.35;13.43;;;9.60;99.90;;;;;;5074391;28;20028;-87
2022/03/27 06:11:49;;;;;;;23.08;14.13;;;9.50;99.90;;;;;;5073998;28;20029;-87
2022/03/27 06:14:14;;;;;;;24.50;14.10;;;9.60;99.90;;;;;;5071458;28;20123;-87
2022/03/27 06:16:45;;;;;;;19.17;11.98;;;9.50;99.90;;;;;;5072794;28;20475;-87
2022/03/27 06:19:11;;;;;;;25.17;13.95;;;9.50;99.90;;;;;;5074379;28;20390;-87
2022/03/27 06:21:52;;;;;;;27.40;14.23;;;9.50;99.90;;;;;;5074100;28;20017;-87
2022/03/27 06:24:18;;;;;;;27.77;14.15;;;9.50;99.90;;;;;;5074047;28;20416;-87
2022/03/27 06:26:44;;;;;;;25.55;14.30;;;9.50;99.90;;;;;;5074061;28;20024;-87
2022/03/27 06:29:18;;;;;;;32.42;14.68;;;9.50;99.90;;;;;;5074069;28;20035;-87
2022/03/27 06:31:45;;;;;;;21.05;14.20;;;9.50;99.90;;;;;;5073985;28;20029;-87
2022/03/27 06:34:12;;;;;;;28.98;14.75;;;9.50;99.90;;;;;;5073921;28;20024;-87
2022/03/27 06:36:38;;;;;;;23.58;13.10;;;9.50;99.90;;;;;;5073537;28;20032;-87
2022/03/27 06:39:13;;;;;;;24.90;13.50;;;9.60;99.90;;;;;;5073260;28;20017;-87
2022/03/27 06:41:39;;;;;;;23.88;13.82;;;9.60;99.90;;;;;;5073798;28;21451;-92
2022/03/27 06:44:04;;;;;;;31.65;14.18;;;9.60;99.90;;;;;;5073065;28;20039;-91
2022/03/27 06:47:01;;;;;;;28.67;14.90;;;9.70;99.90;;;;;;5074066;28;20028;-91
2022/03/27 06:49:26;;;;;;;26.40;15.73;;;9.60;99.90;;;;;;5074063;28;20490;-91
2022/03/27 06:52:02;;;;;;;27.00;15.35;;;9.60;99.90;;;;;;5073649;28;20037;-91
2022/03/27 06:54:29;;;;;;;31.45;15.18;;;9.60;99.90;;;;;;5072610;28;20067;-91
2022/03/27 06:56:57;;;;;;;31.67;17.08;;;9.60;99.90;;;;;;5072431;28;20532;-91
2022/03/27 06:59:22;;;;;;;25.92;14.88;;;9.60;99.90;;;;;;5072600;28;20021;-91
2022/03/27 07:04:49;;;;;;;30.55;15.63;;;9.60;99.90;;;;;;5074113;28;20096;-91
2022/03/27 07:07:14;;;;;;;25.08;15.07;;;9.60;99.90;;;;;;5072239;28;20021;-91
2022/03/27 07:10:08;;;;;;;28.25;15.88;;;9.70;99.90;;;;;;5072715;28;20032;-92
2022/03/27 07:12:33;;;;;;;25.90;15.98;;;9.70;99.90;;;;;;5072380;28;20082;-92
2022/03/27 07:14:59;;;;;;;30.02;16.42;;;9.70;99.90;;;;;;5068814;28;20048;-92
2022/03/27 07:17:25;;;;;;;29.65;15.60;;;9.70;99.90;;;;;;5070788;28;20033;-92
2022/03/27 07:19:52;;;;;;;24.30;14.82;;;9.80;99.90;;;;;;5073495;28;20016;-92
2022/03/27 07:22:18;;;;;;;22.45;13.95;;;9.80;99.90;;;;;;5071458;28;20029;-92
2022/03/27 07:24:45;;;;;;;31.83;17.30;;;9.90;99.90;;;;;;5073462;28;20016;-91
2022/03/27 07:27:31;;;;;;;28.55;15.80;;;9.90;99.90;;;;;;5072114;28;20020;-93
2022/03/27 07:29:56;;;;;;;20.75;14.23;;;10.00;99.90;;;;;;5072242;28;20442;-91
2022/03/27 07:32:26;;;;;;;30.65;19.00;;;10.00;99.90;;;;;;5072039;28;20032;-91
2022/03/27 07:34:51;;;;;;;32.60;16.90;;;10.10;99.90;;;;;;5071994;28;20381;-91
2022/03/27 07:37:27;;;;;;;31.38;16.67;;;10.10;99.90;;;;;;5071707;28;20021;-91
2022/03/27 07:39:53;;;;;;;28.05;16.15;;;10.10;99.90;;;;;;5072000;28;20021;-91
2022/03/27 07:42:21;;;;;;;29.15;17.55;;;10.10;99.90;;;;;;5071967;28;20055;-92
2022/03/27 07:44:47;;;;;;;26.30;15.27;;;10.20;99.90;;;;;;5072005;28;20013;-91
2022/03/27 07:47:19;;;;;;;21.42;14.65;;;10.20;99.90;;;;;;5071960;28;20464;-92
2022/03/27 07:49:45;;;;;;;26.65;15.32;;;10.20;99.90;;;;;;5071908;28;20162;-91
2022/03/27 07:52:17;;;;;;;28.73;17.00;;;10.20;99.90;;;;;;5071395;28;20103;-91
2022/03/27 07:54:43;;;;;;;26.85;15.50;;;10.30;99.90;;;;;;5071878;28;20020;-92
2022/03/27 07:57:26;;;;;;;21.63;14.70;;;10.40;99.90;;;;;;5073079;28;20032;-91
2022/03/27 07:59:52;;;;;;;34.90;18.13;;;10.40;99.90;;;;;;5071632;28;20451;-91
2022/03/27 08:02:21;;;;;;;26.35;13.93;;;10.50;99.90;;;;;;5071569;28;20021;-91
2022/03/27 08:04:47;;;;;;;25.50;15.80;;;10.60;99.90;;;;;;5071648;28;20021;-92
2022/03/27 08:07:24;;;;;;;24.33;14.48;;;10.70;99.90;;;;;;5072695;28;20051;-90
2022/03/27 08:09:49;;;;;;;28.48;16.80;;;10.70;99.90;;;;;;5071582;28;20028;-90
2022/03/27 08:12:20;;;;;;;34.45;16.77;;;10.80;99.90;;;;;;5071541;28;20090;-92
2022/03/27 08:15:21;;;;;;;26.25;16.55;;;10.80;99.90;;;;;;5072322;28;20045;-91
2022/03/27 08:17:49;;;;;;;24.25;15.50;;;10.80;99.90;;;;;;5072961;28;20025;-92
2022/03/27 08:20:16;;;;;;;31.20;16.70;;;10.90;99.90;;;;;;5071607;28;20024;-92
2022/03/27 08:22:41;;;;;;;29.15;16.02;;;10.90;99.90;;;;;;5071214;28;20024;-91
2022/03/27 08:26:55;;;;;;;30.17;16.55;;;11.00;99.90;;;;;;5072789;28;20021;-90
2022/03/27 08:28:02;;;;;;;33.28;17.98;;;11.00;99.90;;;;;;5072729;28;20430;-91
2022/03/27 08:30:27;;;;;;;30.05;16.27;;;11.00;99.90;;;;;;5071626;28;20063;-92
2022/03/27 08:32:56;;;;;;;25.65;16.38;;;11.10;99.90;;;;;;5072986;28;20068;-92
2022/03/27 08:35:22;;;;;;;29.33;18.50;;;11.10;99.90;;;;;;5075405;28;20025;-92
2022/03/27 08:38:00;;;;;;;26.55;17.00;;;11.10;99.90;;;;;;5075026;28;20064;-90
2022/03/27 08:40:27;;;;;;;27.42;17.40;;;11.10;99.90;;;;;;5076729;28;20107;-91
2022/03/27 08:42:57;;;;;;;25.25;16.20;;;11.20;99.90;;;;;;5075167;28;20063;-91
2022/03/27 08:45:22;;;;;;;25.17;16.33;;;11.20;99.90;;;;;;5076530;28;20020;-91
2022/03/27 08:48:08;;;;;;;27.48;16.92;;;11.30;99.90;;;;;;5075292;28;20024;-92
2022/03/27 08:51:06;;;;;;;26.23;16.88;;;11.30;99.90;;;;;;5076578;28;20024;-91
2022/03/27 08:57:01;;;;;;;31.92;19.00;;;11.40;99.90;;;;;;5076231;28;20044;-91
2022/03/27 08:59:27;;;;;;;31.83;19.65;;;11.50;99.90;;;;;;5074946;28;20021;-90
2022/03/27 09:02:00;;;;;;;33.85;19.45;;;11.50;99.90;;;;;;5074873;28;20114;-91
2022/03/27 09:04:26;;;;;;;29.30;18.70;;;11.60;99.90;;;;;;5074665;28;20028;-91
2022/03/27 09:07:04;;;;;;;34.15;18.08;;;11.70;99.90;;;;;;5075813;28;20024;-90
2022/03/27 09:09:36;;;;;;;32.83;18.67;;;11.70;99.90;;;;;;5075778;28;20106;-91
2022/03/27 09:12:18;;;;;;;30.40;18.88;;;11.80;99.90;;;;;;5074511;28;20029;-91
2022/03/27 09:14:45;;;;;;;29.25;17.95;;;11.80;99.90;;;;;;5075707;28;20124;-91
2022/03/27 09:17:10;;;;;;;31.00;18.77;;;11.80;99.90;;;;;;5074385;28;20073;-91
2022/03/27 09:19:47;;;;;;;38.03;21.13;;;11.90;99.90;;;;;;5074391;28;20416;-91
2022/03/27 09:22:13;;;;;;;29.10;19.33;;;11.90;99.90;;;;;;5074221;28;20020;-91
2022/03/27 09:24:57;;;;;;;27.80;18.58;;;12.00;99.90;;;;;;5074539;28;20495;-91
2022/03/27 09:27:34;;;;;;;32.08;19.80;;;12.10;99.90;;;;;;5075588;28;20046;-91
2022/03/27 09:30:08;;;;;;;41.53;20.63;;;12.10;99.90;;;;;;5075472;28;20029;-90
2022/03/27 09:32:36;;;;;;;32.78;18.67;;;12.10;99.90;;;;;;5075395;28;20130;-90
2022/03/27 09:35:14;;;;;;;34.50;18.70;;;12.20;99.90;;;;;;5075349;28;20033;-91
2022/03/27 09:37:41;;;;;;;35.40;20.15;;;12.10;99.90;;;;;;5074987;28;20154;-90
2022/03/27 09:40:09;;;;;;;30.85;19.85;;;12.20;99.90;;;;;;5074151;28;20021;-91
2022/03/27 09:42:37;;;;;;;30.80;18.98;;;12.10;99.90;;;;;;5075179;28;20024;-90
2022/03/27 09:45:24;;;;;;;28.00;18.02;;;12.10;99.90;;;;;;5074627;28;20032;-91
2022/03/27 09:47:55;;;;;;;29.80;18.40;;;12.10;99.90;;;;;;5075058;28;20491;-92
2022/03/27 09:50:41;;;;;;;29.13;17.90;;;12.10;99.90;;;;;;5073949;28;20305;-91
2022/03/27 09:53:26;;;;;;;32.22;20.38;;;12.20;99.90;;;;;;5073501;28;20393;-91
2022/03/27 09:56:39;;;;;;;33.22;19.63;;;12.20;99.90;;;;;;5073660;28;20032;-92
2022/03/27 09:59:40;;;;;;;35.28;21.15;;;12.30;99.90;;;;;;5073581;28;20115;-90
2022/03/27 10:02:17;;;;;;;31.73;21.17;;;12.30;99.90;;;;;;5057284;28;20072;-91
2022/03/27 10:05:03;;;;;;;35.08;19.33;;;12.40;99.90;;;;;;5073496;28;20034;-91
2022/03/27 10:07:36;;;;;;;29.60;18.15;;;12.50;99.90;;;;;;5073316;28;20021;-91
2022/03/27 10:10:14;;;;;;;28.70;18.40;;;12.60;99.90;;;;;;5073432;28;20025;-90
2022/03/27 10:12:42;;;;;;;30.35;18.45;;;12.70;99.90;;;;;;5073195;28;20115;-90
2022/03/27 10:15:15;;;;;;;33.40;18.65;;;12.80;99.90;;;;;;5074197;28;20334;-90
2022/03/27 10:18:08;;;;;;;24.83;16.48;;;12.80;99.90;;;;;;5074461;28;20594;-91
2022/03/27 10:20:35;;;;;;;29.02;16.17;;;12.90;99.90;;;;;;5073218;28;20039;-90
2022/03/27 10:23:18;;;;;;;25.63;16.50;;;12.90;99.90;;;;;;5072936;28;20116;-91
2022/03/27 10:25:50;;;;;;;31.95;17.80;;;12.90;99.90;;;;;;5073100;28;20024;-90
2022/03/27 10:28:21;;;;;;;28.00;16.48;;;13.00;99.90;;;;;;5073105;28;20021;-90
2022/03/27 10:30:50;;;;;;;24.30;16.45;;;13.00;99.90;;;;;;5074269;28;20028;-91
2022/03/27 10:33:32;;;;;;;24.38;15.45;;;13.00;99.90;;;;;;5073048;28;20020;-91
2022/03/27 10:36:15;;;;;;;24.42;16.02;;;13.00;99.90;;;;;;5074365;28;20075;-90
2022/03/27 10:38:49;;;;;;;21.65;15.30;;;13.00;99.90;;;;;;5072962;28;20044;-91
2022/03/27 10:41:43;;;;;;;21.15;14.38;;;13.00;99.90;;;;;;5074186;28;20017;-91
2022/03/27 10:44:33;;;;;;;19.85;13.05;;;12.90;99.90;;;;;;5074059;28;20426;-89
2022/03/27 10:47:17;;;;;;;17.77;11.32;;;12.90;99.90;;;;;;5072705;28;20028;-88
2022/03/27 10:50:10;;;;;;;23.60;14.70;;;12.80;99.90;;;;;;5072779;28;20480;-88
2022/03/27 10:52:51;;;;;;;20.77;14.48;;;12.90;99.90;;;;;;5073610;28;20059;-88
2022/03/27 10:55:41;;;;;;;28.20;14.82;;;12.90;99.90;;;;;;5072568;28;20020;-87
2022/03/27 10:58:28;;;;;;;21.05;13.48;;;12.90;99.90;;;;;;5071618;28;20111;-88
2022/03/27 11:00:57;;;;;;;19.70;11.43;;;13.00;99.90;;;;;;5072642;28;20507;-89
2022/03/27 11:04:04;;;;;;;15.70;9.75;;;13.00;99.90;;;;;;5073523;28;20029;-88
2022/03/27 11:06:43;;;;;;;13.20;9.95;;;13.10;99.90;;;;;;5065541;28;20418;-88
2022/03/27 11:09:12;;;;;;;21.38;11.38;;;13.00;99.90;;;;;;5072150;28;20042;-87
2022/03/27 11:11:40;;;;;;;19.70;11.10;;;13.00;99.90;;;;;;5072247;28;20498;-88
2022/03/27 11:14:08;;;;;;;16.40;10.43;;;13.10;99.90;;;;;;5073397;28;20036;-89
2022/03/27 11:16:36;;;;;;;18.63;11.65;;;13.00;99.90;;;;;;5072194;28;20039;-88
2022/03/27 11:19:47;;;;;;;17.88;10.35;;;13.00;99.90;;;;;;5073353;28;20032;-88
2022/03/27 11:22:45;;;;;;;15.93;10.73;;;13.00;99.90;;;;;;5071944;28;20472;-88
2022/03/27 11:25:29;;;;;;;15.85;11.52;;;13.10;99.90;;;;;;5073254;28;20051;-88
2022/03/27 11:28:07;;;;;;;20.23;12.63;;;13.20;99.90;;;;;;5072299;28;20116;-87
2022/03/27 11:30:50;;;;;;;20.13;12.05;;;13.20;99.90;;;;;;5071821;28;20024;-88
2022/03/27 11:33:18;;;;;;;16.02;11.15;;;13.30;99.90;;;;;;5072413;28;20037;-88
2022/03/27 11:36:07;;;;;;;24.70;13.55;;;13.30;99.90;;;;;;5071921;28;20024;-88
2022/03/27 11:38:51;;;;;;;18.55;12.60;;;13.40;99.90;;;;;;5056792;28;20043;-88
2022/03/27 11:41:25;;;;;;;20.08;12.57;;;13.50;99.90;;;;;;5073022;28;20050;-87
2022/03/27 11:43:54;;;;;;;18.05;12.00;;;13.70;99.90;;;;;;5072942;28;20532;-88
2022/03/27 11:46:28;;;;;;;18.23;12.43;;;13.90;99.90;;;;;;5071799;28;20030;-88
2022/03/27 11:48:59;;;;;;;17.50;11.95;;;14.00;99.90;;;;;;5072972;28;20423;-88
2022/03/27 11:51:30;;;;;;;21.00;12.15;;;14.00;99.90;;;;;;5072990;28;20466;-88
2022/03/27 11:53:58;;;;;;;17.15;12.30;;;13.90;99.90;;;;;;5071830;28;20047;-86
2022/03/27 11:56:26;;;;;;;17.58;12.43;;;13.90;99.90;;;;;;5072915;28;20031;-87
2022/03/27 11:59:12;;;;;;;19.75;11.68;;;13.90;99.90;;;;;;5072745;28;20110;-87
2022/03/27 12:01:41;;;;;;;16.92;11.48;;;14.00;99.90;;;;;;5073183;28;20044;-88
2022/03/27 12:04:14;;;;;;;23.50;12.88;;;14.00;99.90;;;;;;5072961;28;20031;-88
2022/03/27 12:06:39;;;;;;;18.70;12.73;;;14.10;99.90;;;;;;5071510;28;20052;-88
2022/03/27 12:09:09;;;;;;;17.05;11.60;;;14.10;99.90;;;;;;5071282;28;20048;-88
2022/03/27 12:11:35;;;;;;;16.08;11.32;;;14.20;99.90;;;;;;5071410;28;20029;-88
2022/03/27 12:14:08;;;;;;;19.88;12.82;;;14.40;99.90;;;;;;5071083;28;20504;-87
2022/03/27 12:16:33;;;;;;;17.85;11.75;;;14.50;99.90;;;;;;5072581;28;20020;-87
2022/03/27 12:19:29;;;;;;;24.35;11.65;;;14.70;99.90;;;;;;5072642;28;20526;-87
2022/03/27 12:21:54;;;;;;;19.02;11.07;;;14.80;99.90;;;;;;5070394;28;20036;-87
2022/03/27 12:24:41;;;;;;;15.82;9.25;;;14.70;99.90;;;;;;5071542;28;20023;-87
2022/03/27 12:30:37;;;;;;;17.52;11.10;;;14.70;99.90;;;;;;5030455;28;20029;-87
2022/03/27 12:33:21;;;;;;;19.55;10.52;;;14.80;99.90;;;;;;5039820;28;20040;-88
2022/03/27 12:36:18;;;;;;;19.80;11.70;;;14.80;99.90;;;;;;5070987;28;20491;-88
2022/03/27 12:38:44;;;;;;;14.43;10.15;;;14.90;99.90;;;;;;5071182;28;20024;-87
2022/03/27 12:41:42;;;;;;;16.58;11.30;;;15.00;99.90;;;;;;5070996;28;20024;-87
2022/03/27 12:44:08;;;;;;;17.17;11.30;;;15.10;99.90;;;;;;5071062;28;20032;-87
2022/03/27 12:46:49;;;;;;;18.63;11.18;;;15.20;99.90;;;;;;5072291;28;20489;-87
2022/03/27 12:49:15;;;;;;;15.57;9.98;;;15.30;99.90;;;;;;5072383;28;20019;-88
2022/03/27 12:51:56;;;;;;;16.67;10.98;;;15.30;99.90;;;;;;5070873;28;20451;-86
2022/03/27 12:54:21;;;;;;;13.82;10.07;;;15.40;99.90;;;;;;5072310;28;20111;-87
2022/03/27 12:56:58;;;;;;;17.25;11.20;;;15.40;99.90;;;;;;5072220;28;20536;-88
2022/03/27 12:59:24;;;;;;;14.90;10.30;;;15.50;99.90;;;;;;5072079;28;20028;-87
2022/03/27 13:01:52;;;;;;;16.27;10.80;;;15.50;99.90;;;;;;5070759;28;20395;-87
2022/03/27 13:04:17;;;;;;;20.50;10.52;;;15.50;99.90;;;;;;5071063;28;20131;-88
2022/03/27 13:07:09;;;;;;;22.90;11.70;;;15.60;99.90;;;;;;5070906;28;20041;-88
2022/03/27 13:09:57;;;;;;;15.13;10.70;;;15.70;99.90;;;;;;5071042;28;20115;-88
2022/03/27 13:12:26;;;;;;;17.13;11.77;;;15.80;99.90;;;;;;5072032;28;20033;-88
2022/03/27 13:14:52;;;;;;;22.77;12.07;;;15.90;99.90;;;;;;5069678;28;20400;-87